sensor_id;sensor_type;location;lat;lon;timestamp;pressure;altitude;pressure_sealevel;temperature;humidity
44385;BME280;30101;32.778;34.994;2022-12-18T00:02:19;98328.03;;;16.92;53.66
44385;BME280;30101;32.778;34.994;2022-12-18T00:07:22;98323.34;;;16.87;53.90
44385;BME280;30101;32.778;34.994;2022-12-18T00:12:26;98319.25;;;16.85;53.91
44385;BME280;30101;32.778;34.994;2022-12-18T00:17:32;98306.22;;;16.82;53.78
44385;BME280;30101;32.778;34.994;2022-12-18T00:22:35;98314.31;;;16.82;53.89
44385;BME280;30101;32.778;34.994;2022-12-18T00:27:38;98311.84;;;16.80;54.01
44385;BME280;30101;32.778;34.994;2022-12-18T00:32:42;98313.13;;;16.78;53.98
44385;BME280;30101;32.778;34.994;2022-12-18T00:37:45;98307.16;;;16.76;53.93
44385;BME280;30101;32.778;34.994;2022-12-18T00:42:49;98304.13;;;16.72;54.03
44385;BME280;30101;32.778;34.994;2022-12-18T00:47:52;98299.16;;;16.69;54.14
44385;BME280;30101;32.778;34.994;2022-12-18T00:52:57;98291.56;;;16.66;54.02
44385;BME280;30101;32.778;34.994;2022-12-18T00:58:00;98276.19;;;16.66;54.04
44385;BME280;30101;32.778;34.994;2022-12-18T01:03:04;98268.13;;;16.66;53.92
44385;BME280;30101;32.778;34.994;2022-12-18T01:08:08;98272.19;;;16.69;53.75
44385;BME280;30101;32.778;34.994;2022-12-18T01:13:12;98264.25;;;16.74;53.62
44385;BME280;30101;32.778;34.994;2022-12-18T01:18:16;98267.88;;;16.80;53.54
44385;BME280;30101;32.778;34.994;2022-12-18T01:23:19;98269.84;;;16.84;53.37
44385;BME280;30101;32.778;34.994;2022-12-18T01:28:23;98269.97;;;16.89;53.22
44385;BME280;30101;32.778;34.994;2022-12-18T01:33:28;98265.31;;;16.85;53.23
44385;BME280;30101;32.778;34.994;2022-12-18T01:38:31;98274.22;;;16.85;53.03
44385;BME280;30101;32.778;34.994;2022-12-18T01:43:46;98266.81;;;16.81;52.92
44385;BME280;30101;32.778;34.994;2022-12-18T01:48:57;98268.59;;;16.75;53.11
44385;BME280;30101;32.778;34.994;2022-12-18T01:54:02;98275.88;;;16.75;52.90
44385;BME280;30101;32.778;34.994;2022-12-18T01:59:08;98270.94;;;16.71;52.75
44385;BME280;30101;32.778;34.994;2022-12-18T02:04:26;98276.78;;;16.80;52.34
44385;BME280;30101;32.778;34.994;2022-12-18T02:09:49;98266.81;;;16.81;52.67
44385;BME280;30101;32.778;34.994;2022-12-18T02:14:59;98278.06;;;16.78;52.25
44385;BME280;30101;32.778;34.994;2022-12-18T02:20:17;98295.56;;;16.75;52.20
44385;BME280;30101;32.778;34.994;2022-12-18T02:30:47;98293.69;;;16.76;51.96
44385;BME280;30101;32.778;34.994;2022-12-18T02:35:54;98300.38;;;16.73;51.63
44385;BME280;30101;32.778;34.994;2022-12-18T02:41:02;98296.94;;;16.78;51.60
44385;BME280;30101;32.778;34.994;2022-12-18T02:46:32;98300.25;;;16.80;51.61
44385;BME280;30101;32.778;34.994;2022-12-18T02:56:57;98318.06;;;16.81;50.96
44385;BME280;30101;32.778;34.994;2022-12-18T03:02:19;98313.84;;;16.85;50.94
44385;BME280;30101;32.778;34.994;2022-12-18T03:07:36;98316.53;;;16.85;50.42
44385;BME280;30101;32.778;34.994;2022-12-18T03:12:59;98331.88;;;16.84;50.19
44385;BME280;30101;32.778;34.994;2022-12-18T03:18:18;98335.19;;;16.86;50.22
44385;BME280;30101;32.778;34.994;2022-12-18T03:23:27;98349.25;;;16.88;49.80
44385;BME280;30101;32.778;34.994;2022-12-18T03:28:37;98354.19;;;16.91;49.41
44385;BME280;30101;32.778;34.994;2022-12-18T03:33:53;98358.97;;;16.89;49.10
44385;BME280;30101;32.778;34.994;2022-12-18T03:39:05;98367.44;;;16.93;48.83
44385;BME280;30101;32.778;34.994;2022-12-18T03:44:26;98367.31;;;16.88;48.79
44385;BME280;30101;32.778;34.994;2022-12-18T03:49:51;98365.44;;;16.88;48.88
44385;BME280;30101;32.778;34.994;2022-12-18T03:55:00;98366.72;;;16.86;48.19
44385;BME280;30101;32.778;34.994;2022-12-18T04:00:12;98371.53;;;16.84;48.22
44385;BME280;30101;32.778;34.994;2022-12-18T04:05:30;98372.13;;;16.86;48.23
44385;BME280;30101;32.778;34.994;2022-12-18T04:10:36;98377.53;;;16.86;48.26
44385;BME280;30101;32.778;34.994;2022-12-18T04:15:41;98382.31;;;16.84;48.25
44385;BME280;30101;32.778;34.994;2022-12-18T04:20:49;98380.91;;;16.81;48.31
44385;BME280;30101;32.778;34.994;2022-12-18T04:25:53;98383.38;;;16.83;47.98
44385;BME280;30101;32.778;34.994;2022-12-18T04:31:11;98394.16;;;16.83;48.29
44385;BME280;30101;32.778;34.994;2022-12-18T04:36:15;98404.69;;;16.84;48.05
44385;BME280;30101;32.778;34.994;2022-12-18T04:41:21;98402.00;;;16.84;48.07
44385;BME280;30101;32.778;34.994;2022-12-18T04:46:28;98411.16;;;16.83;48.20
44385;BME280;30101;32.778;34.994;2022-12-18T04:51:31;98410.22;;;16.89;48.06
44385;BME280;30101;32.778;34.994;2022-12-18T04:56:35;98418.09;;;16.91;48.14
44385;BME280;30101;32.778;34.994;2022-12-18T05:01:38;98421.72;;;16.85;48.34
44385;BME280;30101;32.778;34.994;2022-12-18T05:06:42;98420.06;;;16.84;48.34
44385;BME280;30101;32.778;34.994;2022-12-18T05:11:45;98428.97;;;16.84;48.49
44385;BME280;30101;32.778;34.994;2022-12-18T05:16:49;98434.97;;;16.86;48.40
44385;BME280;30101;32.778;34.994;2022-12-18T05:21:53;98454.44;;;16.88;48.84
44385;BME280;30101;32.778;34.994;2022-12-18T05:26:56;98438.50;;;16.87;48.66
44385;BME280;30101;32.778;34.994;2022-12-18T05:32:00;98453.97;;;16.91;48.89
44385;BME280;30101;32.778;34.994;2022-12-18T05:37:03;98451.03;;;16.93;48.87
44385;BME280;30101;32.778;34.994;2022-12-18T05:42:07;98457.16;;;17.00;48.81
44385;BME280;30101;32.778;34.994;2022-12-18T05:47:10;98452.69;;;17.06;48.79
44385;BME280;30101;32.778;34.994;2022-12-18T05:52:15;98460.44;;;17.14;49.18
44385;BME280;30101;32.778;34.994;2022-12-18T05:57:18;98462.66;;;17.17;48.97
44385;BME280;30101;32.778;34.994;2022-12-18T06:02:22;98458.78;;;17.24;48.99
44385;BME280;30101;32.778;34.994;2022-12-18T06:07:26;98470.97;;;17.39;49.19
44385;BME280;30101;32.778;34.994;2022-12-18T06:12:29;98474.25;;;17.41;49.08
44385;BME280;30101;32.778;34.994;2022-12-18T06:17:34;98470.72;;;17.40;49.06
44385;BME280;30101;32.778;34.994;2022-12-18T06:22:37;98493.88;;;17.48;48.46
44385;BME280;30101;32.778;34.994;2022-12-18T06:27:41;98482.25;;;17.47;48.95
44385;BME280;30101;32.778;34.994;2022-12-18T06:32:45;98494.06;;;17.58;48.95
44385;BME280;30101;32.778;34.994;2022-12-18T06:37:54;98504.75;;;17.65;48.95
44385;BME280;30101;32.778;34.994;2022-12-18T06:42:58;98503.81;;;17.71;48.80
44385;BME280;30101;32.778;34.994;2022-12-18T06:48:02;98501.81;;;17.78;48.81
44385;BME280;30101;32.778;34.994;2022-12-18T06:53:05;98506.06;;;17.86;48.52
44385;BME280;30101;32.778;34.994;2022-12-18T06:58:09;98514.09;;;17.97;48.51
44385;BME280;30101;32.778;34.994;2022-12-18T07:03:13;98511.06;;;18.05;48.58
44385;BME280;30101;32.778;34.994;2022-12-18T07:08:17;98516.31;;;18.12;48.21
44385;BME280;30101;32.778;34.994;2022-12-18T07:13:20;98527.81;;;18.19;48.20
44385;BME280;30101;32.778;34.994;2022-12-18T07:18:24;98507.34;;;18.23;48.07
44385;BME280;30101;32.778;34.994;2022-12-18T07:23:28;98519.97;;;18.34;48.11
44385;BME280;30101;32.778;34.994;2022-12-18T07:28:32;98506.91;;;18.43;48.08
44385;BME280;30101;32.778;34.994;2022-12-18T07:33:36;98507.81;;;18.49;48.04
44385;BME280;30101;32.778;34.994;2022-12-18T07:38:40;98499.06;;;18.58;47.66
44385;BME280;30101;32.778;34.994;2022-12-18T07:43:43;98499.16;;;18.64;47.83
44385;BME280;30101;32.778;34.994;2022-12-18T07:48:47;98497.28;;;18.64;47.67
44385;BME280;30101;32.778;34.994;2022-12-18T07:53:52;98482.56;;;18.72;47.58
44385;BME280;30101;32.778;34.994;2022-12-18T07:59:07;98486.16;;;18.77;47.55
44385;BME280;30101;32.778;34.994;2022-12-18T08:04:11;98480.84;;;18.82;47.70
44385;BME280;30101;32.778;34.994;2022-12-18T08:09:15;98479.13;;;18.93;47.53
44385;BME280;30101;32.778;34.994;2022-12-18T08:14:18;98475.44;;;18.99;47.47
44385;BME280;30101;32.778;34.994;2022-12-18T08:19:22;98461.50;;;19.07;47.42
44385;BME280;30101;32.778;34.994;2022-12-18T08:24:25;98458.59;;;19.14;47.57
44385;BME280;30101;32.778;34.994;2022-12-18T08:29:29;98446.03;;;19.25;47.38
44385;BME280;30101;32.778;34.994;2022-12-18T08:34:32;98439.03;;;19.29;47.26
44385;BME280;30101;32.778;34.994;2022-12-18T08:39:36;98429.94;;;19.35;47.13
44385;BME280;30101;32.778;34.994;2022-12-18T08:44:39;98415.38;;;19.41;47.11
44385;BME280;30101;32.778;34.994;2022-12-18T08:49:42;98420.94;;;19.51;47.06
44385;BME280;30101;32.778;34.994;2022-12-18T08:54:46;98398.75;;;19.54;46.96
44385;BME280;30101;32.778;34.994;2022-12-18T08:59:49;98379.31;;;19.57;46.98
44385;BME280;30101;32.778;34.994;2022-12-18T09:04:54;98375.69;;;19.69;46.78
44385;BME280;30101;32.778;34.994;2022-12-18T09:09:59;98366.00;;;19.78;46.75
44385;BME280;30101;32.778;34.994;2022-12-18T09:15:04;98353.66;;;19.87;46.52
44385;BME280;30101;32.778;34.994;2022-12-18T09:20:08;98341.28;;;19.96;46.33
44385;BME280;30101;32.778;34.994;2022-12-18T09:25:12;98321.53;;;20.01;46.14
44385;BME280;30101;32.778;34.994;2022-12-18T09:30:15;98320.31;;;20.13;45.99
44385;BME280;30101;32.778;34.994;2022-12-18T09:35:19;98323.34;;;20.22;46.06
44385;BME280;30101;32.778;34.994;2022-12-18T09:40:26;98316.03;;;20.23;45.63
44385;BME280;30101;32.778;34.994;2022-12-18T09:45:42;98301.16;;;20.25;45.77
44385;BME280;30101;32.778;34.994;2022-12-18T09:50:47;98305.34;;;20.43;45.47
44385;BME280;30101;32.778;34.994;2022-12-18T09:55:52;98299.50;;;20.56;45.16
44385;BME280;30101;32.778;34.994;2022-12-18T10:00:56;98292.78;;;20.64;44.70
44385;BME280;30101;32.778;34.994;2022-12-18T10:21:58;98261.44;;;20.88;44.04
44385;BME280;30101;32.778;34.994;2022-12-18T10:27:14;98247.03;;;20.93;43.90
44385;BME280;30101;32.778;34.994;2022-12-18T10:32:24;98249.28;;;21.01;43.61
44385;BME280;30101;32.778;34.994;2022-12-18T10:37:29;98240.56;;;21.04;43.13
44385;BME280;30101;32.778;34.994;2022-12-18T10:42:34;98232.97;;;21.01;43.12
44385;BME280;30101;32.778;34.994;2022-12-18T10:47:48;98223.47;;;21.04;43.22
44385;BME280;30101;32.778;34.994;2022-12-18T10:53:00;98220.47;;;21.05;42.96
44385;BME280;30101;32.778;34.994;2022-12-18T11:14:18;98211.28;;;21.11;42.50
44385;BME280;30101;32.778;34.994;2022-12-18T11:19:36;98208.56;;;21.16;41.97
44385;BME280;30101;32.778;34.994;2022-12-18T11:24:39;98201.00;;;21.18;41.79
44385;BME280;30101;32.778;34.994;2022-12-18T11:29:43;98194.72;;;21.18;41.63
44385;BME280;30101;32.778;34.994;2022-12-18T11:34:53;98198.00;;;21.15;41.28
44385;BME280;30101;32.778;34.994;2022-12-18T11:40:07;98198.00;;;21.15;41.29
44385;BME280;30101;32.778;34.994;2022-12-18T11:45:27;98186.84;;;21.16;40.96
44385;BME280;30101;32.778;34.994;2022-12-18T11:55:41;98191.22;;;21.22;40.78
44385;BME280;30101;32.778;34.994;2022-12-18T12:01:06;98192.03;;;21.28;40.67
44385;BME280;30101;32.778;34.994;2022-12-18T12:11:44;98200.25;;;21.33;40.30
44385;BME280;30101;32.778;34.994;2022-12-18T12:22:13;98187.19;;;21.35;39.38
44385;BME280;30101;32.778;34.994;2022-12-18T12:27:30;98191.53;;;21.36;39.46
44385;BME280;30101;32.778;34.994;2022-12-18T12:33:05;98194.81;;;21.33;39.48
44385;BME280;30101;32.778;34.994;2022-12-18T12:38:27;98197.53;;;21.38;39.25
44385;BME280;30101;32.778;34.994;2022-12-18T12:43:41;98194.81;;;21.38;38.83
44385;BME280;30101;32.778;34.994;2022-12-18T12:49:12;98186.13;;;21.41;38.58
44385;BME280;30101;32.778;34.994;2022-12-18T12:54:23;98190.75;;;21.41;38.54
44385;BME280;30101;32.778;34.994;2022-12-18T13:04:53;98195.38;;;21.40;38.09
44385;BME280;30101;32.778;34.994;2022-12-18T13:10:25;98201.34;;;21.37;38.33
44385;BME280;30101;32.778;34.994;2022-12-18T13:31:09;98208.53;;;21.01;41.59
44385;BME280;30101;32.778;34.994;2022-12-18T13:41:27;98221.66;;;20.57;44.28
44385;BME280;30101;32.778;34.994;2022-12-18T13:46:49;98221.25;;;20.38;45.39
44385;BME280;30101;32.778;34.994;2022-12-18T13:51:54;98227.03;;;20.14;46.33
44385;BME280;30101;32.778;34.994;2022-12-18T13:56:59;98225.50;;;19.91;47.37
44385;BME280;30101;32.778;34.994;2022-12-18T14:12:25;98233.94;;;19.41;49.95
44385;BME280;30101;32.778;34.994;2022-12-18T14:17:31;98228.66;;;19.24;50.78
44385;BME280;30101;32.778;34.994;2022-12-18T14:22:36;98238.22;;;19.10;51.52
44385;BME280;30101;32.778;34.994;2022-12-18T14:43:21;98242.13;;;18.58;54.53
44385;BME280;30101;32.778;34.994;2022-12-18T14:48:40;98252.56;;;18.50;55.16
44385;BME280;30101;32.778;34.994;2022-12-18T14:58:58;98245.28;;;18.33;57.21
44385;BME280;30101;32.778;34.994;2022-12-18T15:04:04;98246.53;;;18.26;58.11
44385;BME280;30101;32.778;34.994;2022-12-18T15:09:25;98244.81;;;18.20;58.30
44385;BME280;30101;32.778;34.994;2022-12-18T15:14:39;98255.28;;;18.16;59.11
44385;BME280;30101;32.778;34.994;2022-12-18T15:19:45;98244.16;;;18.13;59.95
44385;BME280;30101;32.778;34.994;2022-12-18T15:24:50;98255.72;;;18.08;60.46
44385;BME280;30101;32.778;34.994;2022-12-18T15:35:17;98259.91;;;17.99;61.36
44385;BME280;30101;32.778;34.994;2022-12-18T15:40:23;98261.69;;;17.93;62.07
44385;BME280;30101;32.778;34.994;2022-12-18T15:45:27;98257.28;;;17.87;62.57
44385;BME280;30101;32.778;34.994;2022-12-18T15:50:31;98270.22;;;17.85;62.77
44385;BME280;30101;32.778;34.994;2022-12-18T15:55:34;98281.50;;;17.82;63.08
44385;BME280;30101;32.778;34.994;2022-12-18T16:00:39;98286.81;;;17.77;63.33
44385;BME280;30101;32.778;34.994;2022-12-18T16:05:45;98285.66;;;17.73;63.13
44385;BME280;30101;32.778;34.994;2022-12-18T16:10:49;98287.75;;;17.71;63.27
44385;BME280;30101;32.778;34.994;2022-12-18T16:15:53;98294.00;;;17.71;63.10
44385;BME280;30101;32.778;34.994;2022-12-18T16:20:58;98291.19;;;17.66;63.02
44385;BME280;30101;32.778;34.994;2022-12-18T16:26:01;98292.16;;;17.60;62.80
44385;BME280;30101;32.778;34.994;2022-12-18T16:31:05;98292.06;;;17.55;62.88
44385;BME280;30101;32.778;34.994;2022-12-18T16:36:11;98299.25;;;17.49;63.18
44385;BME280;30101;32.778;34.994;2022-12-18T16:41:19;98304.78;;;17.43;62.69
44385;BME280;30101;32.778;34.994;2022-12-18T16:46:23;98313.03;;;17.36;62.58
44385;BME280;30101;32.778;34.994;2022-12-18T16:51:27;98318.16;;;17.38;62.23
44385;BME280;30101;32.778;34.994;2022-12-18T16:56:31;98313.25;;;17.35;61.98
44385;BME280;30101;32.778;34.994;2022-12-18T17:01:34;98316.53;;;17.37;61.29
44385;BME280;30101;32.778;34.994;2022-12-18T17:06:43;98310.19;;;17.43;59.52
44385;BME280;30101;32.778;34.994;2022-12-18T17:11:47;98312.97;;;17.48;58.77
44385;BME280;30101;32.778;34.994;2022-12-18T17:16:52;98317.31;;;17.49;57.90
44385;BME280;30101;32.778;34.994;2022-12-18T17:22:16;98320.84;;;17.49;57.19
44385;BME280;30101;32.778;34.994;2022-12-18T17:27:21;98309.69;;;17.46;56.40
44385;BME280;30101;32.778;34.994;2022-12-18T17:32:25;98314.25;;;17.45;55.38
44385;BME280;30101;32.778;34.994;2022-12-18T17:37:29;98317.78;;;17.46;54.49
44385;BME280;30101;32.778;34.994;2022-12-18T17:42:33;98317.88;;;17.51;53.67
44385;BME280;30101;32.778;34.994;2022-12-18T17:47:39;98315.84;;;17.58;52.76
44385;BME280;30101;32.778;34.994;2022-12-18T17:52:45;98302.34;;;17.58;52.00
44385;BME280;30101;32.778;34.994;2022-12-18T17:57:49;98306.66;;;17.71;51.07
44385;BME280;30101;32.778;34.994;2022-12-18T18:02:53;98309.72;;;17.74;50.29
44385;BME280;30101;32.778;34.994;2022-12-18T18:07:57;98313.50;;;17.73;49.88
44385;BME280;30101;32.778;34.994;2022-12-18T18:13:00;98310.19;;;17.71;49.41
44385;BME280;30101;32.778;34.994;2022-12-18T18:18:03;98313.34;;;17.68;48.94
44385;BME280;30101;32.778;34.994;2022-12-18T18:23:07;98312.19;;;17.64;48.90
44385;BME280;30101;32.778;34.994;2022-12-18T18:28:10;98317.75;;;17.58;48.42
44385;BME280;30101;32.778;34.994;2022-12-18T18:33:14;98319.88;;;17.56;48.18
44385;BME280;30101;32.778;34.994;2022-12-18T18:38:18;98321.50;;;17.57;47.54
44385;BME280;30101;32.778;34.994;2022-12-18T18:43:21;98310.81;;;17.62;47.29
44385;BME280;30101;32.778;34.994;2022-12-18T18:48:26;98305.97;;;17.64;46.89
44385;BME280;30101;32.778;34.994;2022-12-18T18:53:39;98305.25;;;17.68;46.65
44385;BME280;30101;32.778;34.994;2022-12-18T18:58:44;98311.22;;;17.70;46.21
44385;BME280;30101;32.778;34.994;2022-12-18T19:03:48;98311.72;;;17.67;46.16
44385;BME280;30101;32.778;34.994;2022-12-18T19:08:53;98315.59;;;17.60;46.17
44385;BME280;30101;32.778;34.994;2022-12-18T19:13:58;98323.63;;;17.55;45.98
44385;BME280;30101;32.778;34.994;2022-12-18T19:19:03;98327.31;;;17.48;45.94
44385;BME280;30101;32.778;34.994;2022-12-18T19:24:07;98331.53;;;17.44;45.77
44385;BME280;30101;32.778;34.994;2022-12-18T19:29:13;98325.78;;;17.41;45.62
44385;BME280;30101;32.778;34.994;2022-12-18T19:34:16;98322.50;;;17.39;45.49
44385;BME280;30101;32.778;34.994;2022-12-18T19:39:23;98320.31;;;17.36;45.34
44385;BME280;30101;32.778;34.994;2022-12-18T19:44:27;98314.31;;;17.34;45.37
44385;BME280;30101;32.778;34.994;2022-12-18T19:49:32;98315.63;;;17.31;45.40
44385;BME280;30101;32.778;34.994;2022-12-18T19:54:37;98309.28;;;17.25;45.39
44385;BME280;30101;32.778;34.994;2022-12-18T19:59:42;98305.78;;;17.25;45.38
44385;BME280;30101;32.778;34.994;2022-12-18T20:04:47;98306.25;;;17.22;45.19
44385;BME280;30101;32.778;34.994;2022-12-18T20:09:51;98303.47;;;17.17;45.23
44385;BME280;30101;32.778;34.994;2022-12-18T20:15:06;98294.44;;;17.11;44.95
44385;BME280;30101;32.778;34.994;2022-12-18T20:20:10;98293.25;;;17.07;44.52
44385;BME280;30101;32.778;34.994;2022-12-18T20:25:15;98290.56;;;17.07;44.58
44385;BME280;30101;32.778;34.994;2022-12-18T20:30:19;98273.81;;;17.05;44.54
44385;BME280;30101;32.778;34.994;2022-12-18T20:35:23;98272.50;;;17.08;44.25
44385;BME280;30101;32.778;34.994;2022-12-18T20:40:27;98263.59;;;17.07;44.38
44385;BME280;30101;32.778;34.994;2022-12-18T20:45:32;98244.94;;;17.06;44.21
44385;BME280;30101;32.778;34.994;2022-12-18T20:50:35;98236.28;;;17.04;44.08
44385;BME280;30101;32.778;34.994;2022-12-18T20:55:41;98236.50;;;17.02;43.77
44385;BME280;30101;32.778;34.994;2022-12-18T21:00:46;98232.06;;;16.96;43.83
44385;BME280;30101;32.778;34.994;2022-12-18T21:05:50;98226.00;;;16.89;44.25
44385;BME280;30101;32.778;34.994;2022-12-18T21:10:55;98216.41;;;16.81;44.26
44385;BME280;30101;32.778;34.994;2022-12-18T21:16:00;98226.25;;;16.76;44.15
44385;BME280;30101;32.778;34.994;2022-12-18T21:21:05;98222.38;;;16.71;43.89
44385;BME280;30101;32.778;34.994;2022-12-18T21:26:21;98219.69;;;16.71;44.20
44385;BME280;30101;32.778;34.994;2022-12-18T21:31:27;98221.56;;;16.71;44.09
44385;BME280;30101;32.778;34.994;2022-12-18T21:36:32;98208.69;;;16.73;44.00
44385;BME280;30101;32.778;34.994;2022-12-18T21:41:36;98206.81;;;16.74;43.61
44385;BME280;30101;32.778;34.994;2022-12-18T21:46:46;98206.66;;;16.68;43.72
44385;BME280;30101;32.778;34.994;2022-12-18T21:51:58;98199.03;;;16.65;43.74
44385;BME280;30101;32.778;34.994;2022-12-18T21:57:04;98194.72;;;16.64;43.42
44385;BME280;30101;32.778;34.994;2022-12-18T22:02:18;98189.00;;;16.61;43.70
44385;BME280;30101;32.778;34.994;2022-12-18T22:07:22;98181.38;;;16.58;43.59
44385;BME280;30101;32.778;34.994;2022-12-18T22:12:25;98188.19;;;16.49;44.09
44385;BME280;30101;32.778;34.994;2022-12-18T22:17:29;98187.72;;;16.40;44.16
44385;BME280;30101;32.778;34.994;2022-12-18T22:22:32;98200.28;;;16.34;44.35
44385;BME280;30101;32.778;34.994;2022-12-18T22:27:36;98190.78;;;16.32;43.90
44385;BME280;30101;32.778;34.994;2022-12-18T22:32:39;98191.72;;;16.26;43.62
44385;BME280;30101;32.778;34.994;2022-12-18T22:37:42;98191.84;;;16.19;43.48
44385;BME280;30101;32.778;34.994;2022-12-18T22:42:46;98198.75;;;16.15;43.98
44385;BME280;30101;32.778;34.994;2022-12-18T22:47:52;98196.06;;;16.15;43.72
44385;BME280;30101;32.778;34.994;2022-12-18T22:52:55;98197.13;;;16.14;43.96
44385;BME280;30101;32.778;34.994;2022-12-18T22:57:59;98190.34;;;16.11;43.70
44385;BME280;30101;32.778;34.994;2022-12-18T23:03:03;98191.41;;;16.10;43.54
44385;BME280;30101;32.778;34.994;2022-12-18T23:08:09;98178.16;;;16.09;43.52
44385;BME280;30101;32.778;34.994;2022-12-18T23:13:12;98179.81;;;16.10;43.46
44385;BME280;30101;32.778;34.994;2022-12-18T23:18:16;98177.81;;;16.05;43.10
44385;BME280;30101;32.778;34.994;2022-12-18T23:23:19;98182.97;;;16.07;43.39
44385;BME280;30101;32.778;34.994;2022-12-18T23:28:23;98194.31;;;16.09;42.97
44385;BME280;30101;32.778;34.994;2022-12-18T23:33:28;98183.44;;;16.04;42.82
44385;BME280;30101;32.778;34.994;2022-12-18T23:38:32;98194.22;;;16.04;43.03
44385;BME280;30101;32.778;34.994;2022-12-18T23:43:36;98192.47;;;15.98;43.08
44385;BME280;30101;32.778;34.994;2022-12-18T23:48:40;98178.88;;;15.93;43.12
44385;BME280;30101;32.778;34.994;2022-12-18T23:53:44;98179.56;;;15.88;42.61
44385;BME280;30101;32.778;34.994;2022-12-18T23:58:47;98179.22;;;15.84;43.15
